Time;durP1;ratioP1;P1;durP2;ratioP2;P2;SDS_P1;SDS_P2;PMS_P1;PMS_P2;Temp;Humidity;BMP_temperature;BMP_pressure;BME280_temperature;BME280_humidity;BME280_pressure;Samples;Min_cycle;Max_cycle;Signal;HPM_P1;HPM_P2
2023/05/21 00:00:59;;;;;;;;;;;15.00;99.90;;;;;;5089701;28;19935;-77
2023/05/21 00:03:26;;;;;;;;;;;15.00;99.90;;;;;;5088575;28;19928;-77
2023/05/21 00:05:52;;;;;;;;;;;15.00;99.90;;;;;;5088943;28;19944;-77
2023/05/21 00:08:18;;;;;;;;;;;15.00;99.90;;;;;;5088233;28;19924;-77
2023/05/21 00:10:43;;;;;;;;;;;15.00;99.90;;;;;;5080123;28;19932;-77
2023/05/21 00:13:09;;;;;;;;;;;15.00;99.90;;;;;;5087957;28;19928;-77
2023/05/21 00:15:35;;;;;;;;;;;15.00;99.90;;;;;;5089292;28;19943;-76
2023/05/21 00:18:00;;;;;;;;;;;15.00;99.90;;;;;;5076696;28;19924;-77
2023/05/21 00:20:28;;;;;;;;;;;15.00;99.90;;;;;;5088901;28;19928;-77
2023/05/21 00:22:53;;;;;;;;;;;15.00;99.90;;;;;;5089576;28;19931;-77
2023/05/21 00:25:19;;;;;;;;;;;15.00;99.90;;;;;;5088159;28;19924;-77
2023/05/21 00:27:44;;;;;;;;;;;14.90;99.90;;;;;;5088093;28;19928;-76
2023/05/21 00:30:10;;;;;;;;;;;14.90;99.90;;;;;;5070960;28;19971;-77
2023/05/21 00:32:36;;;;;;;;;;;14.90;99.90;;;;;;5089708;28;20042;-76
2023/05/21 00:35:02;;;;;;;;;;;14.90;99.90;;;;;;5070468;28;19928;-77
2023/05/21 00:37:31;;;;;;;;;;;14.90;99.90;;;;;;5089228;28;19924;-77
2023/05/21 00:39:57;;;;;;;;;;;14.80;99.90;;;;;;5087308;28;19928;-77
2023/05/21 00:42:26;;;;;;;;;;;14.80;99.90;;;;;;5071324;28;19931;-77
2023/05/21 00:44:52;;;;;;;;;;;14.80;99.90;;;;;;5090115;28;19924;-76
2023/05/21 00:47:20;;;;;;;;;;;14.80;99.90;;;;;;5091151;28;19950;-76
2023/05/21 00:49:47;;;;;;;;;;;14.70;99.90;;;;;;5090625;28;19931;-77
2023/05/21 00:52:13;;;;;;;;;;;14.80;99.90;;;;;;5091455;28;19924;-76
2023/05/21 00:54:38;;;;;;;;;;;14.70;99.90;;;;;;5092824;28;20272;-77
2023/05/21 00:57:04;;;;;;;;;;;14.70;99.90;;;;;;5090834;28;20034;-77
2023/05/21 00:59:30;;;;;;;;;;;14.70;99.90;;;;;;5091370;28;19924;-77
2023/05/21 01:01:56;;;;;;;;;;;14.70;99.90;;;;;;5084929;28;19954;-77
2023/05/21 01:04:25;;;;;;;;;;;14.60;99.90;;;;;;5091708;28;19978;-77
2023/05/21 01:06:52;;;;;;;;;;;14.60;99.90;;;;;;5092011;28;20305;-77
2023/05/21 01:09:18;;;;;;;;;;;14.60;99.90;;;;;;5083926;28;19932;-77
2023/05/21 01:11:45;;;;;;;;;;;14.50;99.90;;;;;;5085904;28;19924;-76
2023/05/21 01:14:12;;;;;;;;;;;14.60;99.90;;;;;;5092233;28;19947;-77
2023/05/21 01:16:38;;;;;;;;;;;14.60;99.90;;;;;;5091618;28;20561;-77
2023/05/21 01:19:04;;;;;;;;;;;14.50;99.90;;;;;;5092183;28;19979;-77
2023/05/21 01:21:29;;;;;;;;;;;14.50;99.90;;;;;;5091661;28;19932;-77
2023/05/21 01:23:55;;;;;;;;;;;14.50;99.90;;;;;;5090555;28;20014;-77
2023/05/21 01:26:20;;;;;;;;;;;14.40;99.90;;;;;;5073810;28;20023;-77
2023/05/21 01:28:46;;;;;;;;;;;14.40;99.90;;;;;;5091612;28;20304;-77
2023/05/21 01:31:17;;;;;;;;;;;14.40;99.90;;;;;;5090435;28;19949;-77
2023/05/21 01:33:47;;;;;;;;;;;14.40;99.90;;;;;;5090625;28;19924;-77
2023/05/21 01:36:17;;;;;;;;;;;14.40;99.90;;;;;;5090495;28;19925;-77
2023/05/21 01:39:03;;;;;;;;;;;14.30;99.90;;;;;;5090385;28;20382;-77
2023/05/21 01:41:32;;;;;;;;;;;14.30;99.90;;;;;;5082589;28;20003;-77
2023/05/21 01:43:57;;;;;;;;;;;14.30;99.90;;;;;;5086784;28;20658;-77
2023/05/21 01:46:25;;;;;;;;;;;14.30;99.90;;;;;;5091627;28;19928;-77
2023/05/21 01:48:51;;;;;;;;;;;14.30;99.90;;;;;;5091135;28;19947;-77
2023/05/21 01:51:17;;;;;;;;;;;14.20;99.90;;;;;;5090475;28;20366;-77
2023/05/21 01:53:43;;;;;;;;;;;14.20;99.90;;;;;;5089889;28;20342;-77
2023/05/21 01:56:10;;;;;;;;;;;14.20;99.90;;;;;;5090217;28;20004;-77
2023/05/21 01:58:36;;;;;;;;;;;14.10;99.90;;;;;;5086464;28;19924;-77
2023/05/21 02:01:02;;;;;;;;;;;14.10;99.90;;;;;;5091091;28;20336;-77
2023/05/21 02:03:29;;;;;;;;;;;14.00;99.90;;;;;;5091317;28;19924;-77
2023/05/21 02:05:55;;;;;;;;;;;13.90;99.90;;;;;;5088634;28;20722;-77
2023/05/21 02:08:22;;;;;;;;;;;14.00;99.90;;;;;;5085670;28;19928;-77
2023/05/21 02:10:48;;;;;;;;;;;14.00;99.90;;;;;;5081996;28;19924;-77
2023/05/21 02:13:13;;;;;;;;;;;14.00;99.90;;;;;;5089211;28;19950;-77
2023/05/21 02:15:39;;;;;;;;;;;14.00;99.90;;;;;;5084198;28;19948;-76
2023/05/21 02:18:04;;;;;;;;;;;14.00;99.90;;;;;;5090851;28;20149;-77
2023/05/21 02:20:30;;;;;;;;;;;14.00;99.90;;;;;;5089350;28;20015;-77
2023/05/21 02:22:56;;;;;;;;;;;14.00;99.90;;;;;;5090697;28;19959;-77
2023/05/21 02:25:21;;;;;;;;;;;13.90;99.90;;;;;;5090659;28;19924;-77
2023/05/21 02:27:51;;;;;;;;;;;13.90;99.90;;;;;;5090729;28;19930;-77
2023/05/21 02:30:17;;;;;;;;;;;13.90;99.90;;;;;;5090460;28;20454;-74
2023/05/21 02:32:42;;;;;;;;;;;13.90;99.90;;;;;;5089357;28;20010;-74
2023/05/21 02:35:09;;;;;;;;;;;13.90;99.90;;;;;;5090405;28;19976;-74
2023/05/21 02:37:34;;;;;;;;;;;13.90;99.90;;;;;;5088598;28;20390;-74
2023/05/21 02:40:01;;;;;;;;;;;13.90;99.90;;;;;;5090237;28;19931;-74
2023/05/21 02:42:26;;;;;;;;;;;13.90;99.90;;;;;;5089086;28;20026;-74
2023/05/21 02:44:52;;;;;;;;;;;13.90;99.90;;;;;;5089945;28;20018;-74
2023/05/21 02:47:18;;;;;;;;;;;13.90;99.90;;;;;;5090136;28;19924;-74
2023/05/21 02:49:44;;;;;;;;;;;13.90;99.90;;;;;;5089984;28;19959;-74
2023/05/21 02:52:10;;;;;;;;;;;13.90;99.90;;;;;;5090202;28;20600;-74
2023/05/21 02:54:35;;;;;;;;;;;13.90;99.90;;;;;;5089158;28;19924;-74
2023/05/21 02:57:01;;;;;;;;;;;13.90;99.90;;;;;;5089989;28;19975;-74
2023/05/21 02:59:26;;;;;;;;;;;13.90;99.90;;;;;;5088345;28;19924;-74
2023/05/21 03:01:52;;;;;;;;;;;13.90;99.90;;;;;;5082739;28;19924;-74
2023/05/21 03:04:20;;;;;;;;;;;13.90;99.90;;;;;;5088954;28;20035;-74
2023/05/21 03:06:50;;;;;;;;;;;13.90;99.90;;;;;;5089578;28;20394;-74
2023/05/21 03:09:16;;;;;;;;;;;13.90;99.90;;;;;;5082224;28;21093;-74
2023/05/21 03:11:41;;;;;;;;;;;13.90;99.90;;;;;;5089035;28;20372;-75
2023/05/21 03:14:08;;;;;;;;;;;13.90;99.90;;;;;;5071828;28;19924;-74
2023/05/21 03:16:34;;;;;;;;;;;13.80;99.90;;;;;;5087866;28;19942;-74
2023/05/21 03:19:00;;;;;;;;;;;13.80;99.90;;;;;;5062887;28;20297;-75
2023/05/21 03:21:28;;;;;;;;;;;13.80;99.90;;;;;;5087673;28;19958;-74
2023/05/21 03:23:57;;;;;;;;;;;13.80;99.90;;;;;;5088055;28;20394;-74
2023/05/21 03:26:26;;;;;;;;;;;13.70;99.90;;;;;;5088225;28;19928;-74
2023/05/21 03:28:52;;;;;;;;;;;13.70;99.90;;;;;;5088208;28;19985;-74
2023/05/21 03:31:17;;;;;;;;;;;13.70;99.90;;;;;;5088344;28;19924;-75
2023/05/21 03:33:43;;;;;;;;;;;13.70;99.90;;;;;;5088125;28;19930;-74
2023/05/21 03:36:08;;;;;;;;;;;13.70;99.90;;;;;;5087599;28;19947;-74
2023/05/21 03:38:34;;;;;;;;;;;13.70;99.90;;;;;;5088045;28;20332;-74
2023/05/21 03:40:59;;;;;;;;;;;13.70;99.90;;;;;;5087544;28;19932;-74
2023/05/21 03:43:25;;;;;;;;;;;13.70;99.90;;;;;;5088139;28;20395;-74
2023/05/21 03:45:50;;;;;;;;;;;13.70;99.90;;;;;;5087717;28;19924;-74
2023/05/21 03:48:17;;;;;;;;;;;13.70;99.90;;;;;;5087432;28;19928;-74
2023/05/21 03:50:42;;;;;;;;;;;13.70;99.90;;;;;;5088165;28;19924;-74
2023/05/21 03:53:09;;;;;;;;;;;13.70;99.90;;;;;;5089405;28;19928;-74
2023/05/21 03:55:35;;;;;;;;;;;13.80;99.90;;;;;;5088276;28;19932;-74
2023/05/21 03:58:00;;;;;;;;;;;13.80;99.90;;;;;;5082717;28;19930;-74
2023/05/21 04:00:26;;;;;;;;;;;13.80;99.90;;;;;;5088015;28;20057;-74
2023/05/21 04:02:52;;;;;;;;;;;13.80;99.90;;;;;;5087590;28;19924;-74
2023/05/21 04:05:17;;;;;;;;;;;13.90;99.90;;;;;;5083133;28;20032;-74
2023/05/21 04:07:45;;;;;;;;;;;13.80;99.90;;;;;;5087696;28;19928;-74
2023/05/21 04:10:10;;;;;;;;;;;13.80;99.90;;;;;;5078369;28;19931;-74
2023/05/21 04:12:36;;;;;;;;;;;13.80;99.90;;;;;;5071153;28;19924;-74
2023/05/21 04:15:02;;;;;;;;;;;13.80;99.90;;;;;;5089128;28;20317;-76
2023/05/21 04:17:28;;;;;;;;;;;13.80;99.90;;;;;;5088142;28;20340;-76
2023/05/21 04:19:53;;;;;;;;;;;13.80;99.90;;;;;;5089616;28;19950;-76
2023/05/21 04:22:20;;;;;;;;;;;13.90;99.90;;;;;;5092854;28;20030;-76
2023/05/21 04:24:45;;;;;;;;;;;13.80;99.90;;;;;;5089327;28;19931;-76
2023/05/21 04:27:12;;;;;;;;;;;13.90;99.90;;;;;;5087075;28;19924;-76
2023/05/21 04:29:41;;;;;;;;;;;13.90;99.90;;;;;;5092871;28;19931;-76
2023/05/21 04:32:07;;;;;;;;;;;13.90;99.90;;;;;;5091357;28;19931;-76
2023/05/21 04:34:32;;;;;;;;;;;13.90;99.90;;;;;;5092996;28;19924;-76
2023/05/21 04:36:59;;;;;;;;;;;13.90;99.90;;;;;;5092435;28;19954;-76
2023/05/21 04:39:24;;;;;;;;;;;13.90;99.90;;;;;;5074422;28;20015;-76
2023/05/21 04:41:53;;;;;;;;;;;13.90;99.90;;;;;;5092719;28;20012;-76
2023/05/21 04:44:19;;;;;;;;;;;13.90;99.90;;;;;;5092816;28;19963;-76
2023/05/21 04:46:44;;;;;;;;;;;13.90;99.90;;;;;;5091023;28;19990;-76
2023/05/21 04:49:10;;;;;;;;;;;13.90;99.90;;;;;;5092475;28;19927;-76
2023/05/21 04:51:36;;;;;;;;;;;13.90;99.90;;;;;;5092204;28;19930;-76
2023/05/21 04:54:02;;;;;;;;;;;13.90;99.90;;;;;;5090905;28;19928;-75
2023/05/21 04:56:28;;;;;;;;;;;14.00;99.90;;;;;;5092167;28;19938;-76
2023/05/21 04:58:53;;;;;;;;;;;13.90;99.90;;;;;;5092055;28;19928;-76
2023/05/21 05:01:22;;;;;;;;;;;13.90;99.90;;;;;;5092644;28;20410;-76
2023/05/21 05:03:47;;;;;;;;;;;13.90;99.90;;;;;;5092445;28;19924;-76
2023/05/21 05:06:13;;;;;;;;;;;13.80;99.90;;;;;;5090234;28;19925;-76
2023/05/21 05:08:39;;;;;;;;;;;13.80;99.90;;;;;;5090096;28;20354;-76
2023/05/21 05:11:04;;;;;;;;;;;13.80;99.90;;;;;;5090946;28;19979;-76
2023/05/21 05:13:30;;;;;;;;;;;13.80;99.90;;;;;;5090656;28;19931;-76
2023/05/21 05:15:56;;;;;;;;;;;13.80;99.90;;;;;;5090913;28;20402;-76
2023/05/21 05:18:22;;;;;;;;;;;13.80;99.90;;;;;;5090666;28;20028;-76
2023/05/21 05:20:47;;;;;;;;;;;13.80;99.90;;;;;;5089590;28;19977;-75
2023/05/21 05:23:13;;;;;;;;;;;13.90;99.90;;;;;;5091818;28;19924;-76
2023/05/21 05:25:38;;;;;;;;;;;13.80;99.90;;;;;;5089667;28;20005;-76
2023/05/21 05:28:04;;;;;;;;;;;13.90;99.90;;;;;;5068049;28;19982;-76
2023/05/21 05:30:29;;;;;;;;;;;13.90;99.90;;;;;;5087890;28;21032;-76
2023/05/21 05:32:55;;;;;;;;;;;14.00;99.90;;;;;;5090521;28;19931;-76
2023/05/21 05:35:20;;;;;;;;;;;14.00;99.90;;;;;;5090587;28;19932;-76
2023/05/21 05:37:46;;;;;;;;;;;14.00;99.90;;;;;;5087224;28;19924;-76
2023/05/21 05:40:11;;;;;;;;;;;14.00;99.90;;;;;;5087643;28;19968;-76
2023/05/21 05:42:37;;;;;;;;;;;14.00;99.90;;;;;;5073290;28;19970;-76
2023/05/21 05:45:03;;;;;;;;;;;14.10;99.90;;;;;;5090610;28;19930;-76
2023/05/21 05:47:28;;;;;;;;;;;14.10;99.90;;;;;;5090222;28;19932;-76
2023/05/21 05:49:54;;;;;;;;;;;14.20;99.90;;;;;;5091537;28;19975;-76
2023/05/21 05:52:19;;;;;;;;;;;14.30;99.90;;;;;;5091405;28;20015;-76
2023/05/21 05:54:45;;;;;;;;;;;14.30;99.90;;;;;;5090409;28;19928;-76
2023/05/21 05:57:11;;;;;;;;;;;14.40;99.90;;;;;;5073207;28;19977;-76
2023/05/21 05:59:36;;;;;;;;;;;14.40;99.90;;;;;;5089826;28;19924;-76
2023/05/21 06:02:02;;;;;;;;;;;14.40;99.90;;;;;;5090191;28;20408;-76
2023/05/21 06:04:28;;;;;;;;;;;14.40;99.90;;;;;;5090350;28;20439;-76
2023/05/21 06:06:56;;;;;;;;;;;14.50;99.90;;;;;;5089748;28;19936;-76
2023/05/21 06:09:22;;;;;;;;;;;14.50;99.90;;;;;;5091233;28;19924;-76
2023/05/21 06:11:48;;;;;;;;;;;14.50;99.90;;;;;;5089452;28;20018;-76
2023/05/21 06:14:13;;;;;;;;;;;14.50;99.90;;;;;;5089857;28;19924;-76
2023/05/21 06:16:39;;;;;;;;;;;14.50;99.90;;;;;;5089326;28;20416;-76
2023/05/21 06:19:04;;;;;;;;;;;14.50;99.90;;;;;;5090712;28;20567;-76
2023/05/21 06:21:30;;;;;;;;;;;14.50;99.90;;;;;;5089712;28;20332;-76
2023/05/21 06:23:55;;;;;;;;;;;14.40;99.90;;;;;;5090311;28;19988;-76
2023/05/21 06:26:22;;;;;;;;;;;14.50;99.90;;;;;;5091134;28;20390;-76
2023/05/21 06:28:48;;;;;;;;;;;14.50;99.90;;;;;;5090663;28;20401;-76
2023/05/21 06:31:13;;;;;;;;;;;14.50;99.90;;;;;;5089362;28;19932;-76
2023/05/21 06:33:39;;;;;;;;;;;14.50;99.90;;;;;;5090571;28;20014;-76
2023/05/21 06:36:05;;;;;;;;;;;14.50;99.90;;;;;;5087170;28;20026;-76
2023/05/21 06:38:30;;;;;;;;;;;14.60;99.90;;;;;;5084685;28;19931;-76
2023/05/21 06:40:57;;;;;;;;;;;14.70;99.90;;;;;;5090255;28;19936;-76
2023/05/21 06:43:23;;;;;;;;;;;14.70;99.90;;;;;;5090076;28;19924;-76
2023/05/21 06:45:48;;;;;;;;;;;14.80;99.90;;;;;;5090124;28;19931;-76
2023/05/21 06:48:15;;;;;;;;;;;14.80;99.90;;;;;;5089879;28;20003;-76
2023/05/21 06:50:41;;;;;;;;;;;14.80;99.90;;;;;;5071928;28;19951;-76
2023/05/21 06:53:07;;;;;;;;;;;14.90;99.90;;;;;;5088574;28;20329;-76
2023/05/21 06:55:32;;;;;;;;;;;14.90;99.90;;;;;;5088609;28;20346;-76
2023/05/21 06:57:58;;;;;;;;;;;15.00;99.90;;;;;;5089936;28;19928;-76
2023/05/21 07:00:24;;;;;;;;;;;15.00;99.90;;;;;;5089578;28;19936;-76
2023/05/21 07:02:49;;;;;;;;;;;15.10;99.90;;;;;;5088969;28;19924;-76
2023/05/21 07:05:15;;;;;;;;;;;15.20;99.90;;;;;;5089993;28;20294;-76
2023/05/21 07:07:40;;;;;;;;;;;15.20;99.90;;;;;;5088743;28;19928;-76
2023/05/21 07:10:07;;;;;;;;;;;15.20;99.90;;;;;;5088734;28;19924;-76
2023/05/21 07:12:32;;;;;;;;;;;15.20;99.90;;;;;;5088779;28;19924;-76
2023/05/21 07:14:58;;;;;;;;;;;15.30;99.90;;;;;;5070772;28;20325;-76
2023/05/21 07:17:23;;;;;;;;;;;15.30;99.90;;;;;;5087680;28;19928;-76
2023/05/21 07:19:49;;;;;;;;;;;15.40;99.90;;;;;;5088752;28;19932;-76
2023/05/21 07:22:14;;;;;;;;;;;15.40;99.90;;;;;;5079944;28;20403;-76
2023/05/21 07:24:40;;;;;;;;;;;15.40;99.90;;;;;;5090111;28;20003;-76
2023/05/21 07:27:05;;;;;;;;;;;15.50;99.90;;;;;;5089435;28;19928;-76
2023/05/21 07:29:34;;;;;;;;;;;15.50;99.90;;;;;;5089906;28;19932;-76
2023/05/21 07:32:00;;;;;;;;;;;15.60;99.90;;;;;;5089459;28;19932;-76
2023/05/21 07:34:25;;;;;;;;;;;15.60;99.90;;;;;;5089649;28;20339;-76
2023/05/21 07:36:51;;;;;;;;;;;15.60;99.90;;;;;;5088709;28;19925;-76
2023/05/21 07:39:17;;;;;;;;;;;15.60;99.90;;;;;;5088299;28;20445;-76
2023/05/21 07:41:42;;;;;;;;;;;15.70;99.90;;;;;;5088343;28;19973;-76
2023/05/21 07:44:08;;;;;;;;;;;15.80;99.90;;;;;;5088160;28;20431;-76
2023/05/21 07:46:34;;;;;;;;;;;15.80;99.90;;;;;;5088331;28;20014;-76
2023/05/21 07:48:59;;;;;;;;;;;15.90;99.90;;;;;;5067920;28;19928;-76
2023/05/21 07:51:25;;;;;;;;;;;16.00;99.90;;;;;;5083148;28;19924;-76
2023/05/21 07:53:51;;;;;;;;;;;16.00;99.90;;;;;;5088841;28;21060;-76
2023/05/21 07:56:16;;;;;;;;;;;16.10;99.90;;;;;;5091878;28;19936;-76
2023/05/21 07:58:44;;;;;;;;;;;16.10;99.90;;;;;;5091681;28;20001;-76
2023/05/21 08:01:12;;;;;;;;;;;16.30;99.90;;;;;;5093088;28;19950;-76
2023/05/21 08:03:38;;;;;;;;;;;16.40;99.90;;;;;;5093174;28;20407;-76
2023/05/21 08:06:03;;;;;;;;;;;16.50;99.90;;;;;;5088884;28;19972;-76
2023/05/21 08:08:29;;;;;;;;;;;16.50;99.90;;;;;;5089663;28;20397;-77
2023/05/21 08:10:55;;;;;;;;;;;16.60;99.90;;;;;;5083001;28;20394;-76
2023/05/21 08:13:21;;;;;;;;;;;16.60;99.90;;;;;;5085166;28;19940;-76
2023/05/21 08:15:47;;;;;;;;;;;16.60;99.90;;;;;;5088884;28;19927;-76
2023/05/21 08:18:12;;;;;;;;;;;16.70;99.90;;;;;;5085534;28;19932;-77
2023/05/21 08:20:38;;;;;;;;;;;16.70;99.90;;;;;;5070210;28;19924;-77
2023/05/21 08:23:04;;;;;;;;;;;16.80;99.90;;;;;;5090253;28;19924;-77
2023/05/21 08:25:30;;;;;;;;;;;16.80;99.90;;;;;;5087977;28;20279;-79
2023/05/21 08:27:56;;;;;;;;;;;16.90;99.90;;;;;;5082256;28;19973;-76
2023/05/21 08:30:21;;;;;;;;;;;17.00;99.90;;;;;;5064793;28;19924;-77
2023/05/21 08:32:47;;;;;;;;;;;17.10;99.90;;;;;;5090824;28;19931;-77
2023/05/21 08:35:13;;;;;;;;;;;17.00;99.90;;;;;;5092214;28;19950;-73
2023/05/21 08:37:38;;;;;;;;;;;17.00;99.90;;;;;;5092513;28;20409;-75
2023/05/21 08:40:05;;;;;;;;;;;17.10;99.90;;;;;;5091229;28;19986;-76
2023/05/21 08:42:46;;;;;;;;;;;17.10;99.90;;;;;;5085766;28;19924;-76
2023/05/21 08:45:13;;;;;;;;;;;17.10;99.90;;;;;;5087818;28;19966;-76
2023/05/21 08:47:40;;;;;;;;;;;17.10;99.90;;;;;;5092408;28;19924;-76
2023/05/21 08:50:10;;;;;;;;;;;17.10;99.90;;;;;;5090480;28;19924;-76
2023/05/21 08:52:35;;;;;;;;;;;17.10;99.90;;;;;;5089775;28;19924;-77
2023/05/21 08:55:03;;;;;;;;;;;17.20;99.90;;;;;;5090397;28;20027;-76
2023/05/21 08:57:29;;;;;;;;;;;17.30;99.90;;;;;;5089570;28;19924;-76
2023/05/21 08:59:55;;;;;;;;;;;17.40;99.90;;;;;;5090672;28;20340;-77
2023/05/21 09:02:20;;;;;;;;;;;17.40;99.90;;;;;;5073843;28;19928;-77
2023/05/21 09:04:48;;;;;;;;;;;17.50;99.90;;;;;;5095553;28;20011;-76
2023/05/21 09:07:14;;;;;;;;;;;17.70;99.90;;;;;;5089243;28;20011;-76
2023/05/21 09:09:45;;;;;;;;;;;17.70;99.90;;;;;;5087590;28;20353;-77
2023/05/21 09:12:11;;;;;;;;;;;17.80;99.90;;;;;;5072233;28;19931;-76
2023/05/21 09:14:36;;;;;;;;;;;17.80;99.90;;;;;;5089713;28;19970;-76
2023/05/21 09:17:02;;;;;;;;;;;17.90;99.90;;;;;;5088997;28;19971;-77
2023/05/21 09:19:30;;;;;;;;;;;18.00;99.90;;;;;;5091310;28;20038;-77
2023/05/21 09:22:02;;;;;;;;;;;18.20;99.90;;;;;;5092577;28;20544;-76
2023/05/21 09:24:31;;;;;;;;;;;18.40;99.90;;;;;;5089961;28;19935;-76
2023/05/21 09:26:57;;;;;;;;;;;18.50;99.90;;;;;;5073554;28;20046;-77
2023/05/21 09:29:25;;;;;;;;;;;18.60;99.90;;;;;;5090879;28;20413;-76
2023/05/21 09:31:50;;;;;;;;;;;18.80;99.90;;;;;;5091143;28;20729;-76
2023/05/21 09:34:16;;;;;;;;;;;18.90;99.90;;;;;;5093025;28;19969;-77
2023/05/21 09:36:42;;;;;;;;;;;19.00;99.90;;;;;;5094187;28;19931;-76
2023/05/21 09:39:10;;;;;;;;;;;19.10;99.90;;;;;;5089049;28;19924;-76
2023/05/21 09:41:36;;;;;;;;;;;19.10;99.90;;;;;;5090934;28;19931;-76
2023/05/21 09:44:02;;;;;;;;;;;19.10;99.90;;;;;;5093341;28;20074;-77
2023/05/21 09:46:37;;;;;;;;;;;19.10;99.90;;;;;;5093347;28;20023;-77
2023/05/21 09:49:02;;;;;;;;;;;19.00;99.90;;;;;;5022566;28;1928344;-76
2023/05/21 09:51:28;;;;;;;;;;;18.90;99.90;;;;;;5090221;28;19931;-78
2023/05/21 09:53:56;;;;;;;;;;;18.90;99.90;;;;;;5092792;28;19935;-77
2023/05/21 09:56:31;;;;;;;;;;;18.90;99.90;;;;;;5090053;28;19931;-77
2023/05/21 09:58:59;;;;;;;;;;;19.00;99.90;;;;;;5075443;28;19928;-77
2023/05/21 10:01:24;;;;;;;;;;;19.10;99.90;;;;;;5093342;28;19946;-77
2023/05/21 10:03:54;;;;;;;;;;;19.10;99.90;;;;;;5090584;28;19924;-78
2023/05/21 10:06:20;;;;;;;;;;;19.10;99.90;;;;;;5094772;28;20023;-77
2023/05/21 10:08:47;;;;;;;;;;;19.10;99.90;;;;;;5089755;28;20007;-72
2023/05/21 10:11:13;;;;;;;;;;;19.10;99.90;;;;;;5087370;28;19967;-73
2023/05/21 10:13:43;;;;;;;;;;;19.10;99.90;;;;;;5092186;28;19930;-76
2023/05/21 10:16:09;;;;;;;;;;;19.20;99.90;;;;;;5092190;28;19924;-77
2023/05/21 10:18:36;;;;;;;;;;;19.20;99.90;;;;;;5090827;28;19973;-76
2023/05/21 10:21:02;;;;;;;;;;;19.10;99.90;;;;;;5090628;28;19925;-77
2023/05/21 10:23:28;;;;;;;;;;;19.10;99.90;;;;;;5090081;28;19947;-77
2023/05/21 10:25:54;;;;;;;;;;;19.00;99.90;;;;;;5090238;28;20390;-77
2023/05/21 10:28:21;;;;;;;;;;;19.00;99.90;;;;;;5089510;28;19924;-77
2023/05/21 10:30:47;;;;;;;;;;;19.10;99.90;;;;;;5090433;28;20378;-77
2023/05/21 10:33:15;;;;;;;;;;;19.10;99.90;;;;;;5081107;28;19924;-78
2023/05/21 10:35:41;;;;;;;;;;;19.30;99.90;;;;;;5090489;28;19925;-77
2023/05/21 10:38:07;;;;;;;;;;;19.50;99.90;;;;;;5090182;28;19963;-77
2023/05/21 10:40:34;;;;;;;;;;;19.60;99.90;;;;;;5089087;28;19928;-77
2023/05/21 10:43:09;;;;;;;;;;;19.80;99.90;;;;;;5089384;28;20302;-77
2023/05/21 10:45:38;;;;;;;;;;;20.00;99.90;;;;;;5071663;28;19932;-77
2023/05/21 10:48:15;;;;;;;;;;;20.10;99.90;;;;;;5090013;28;19931;-77
2023/05/21 10:50:50;;;;;;;;;;;20.10;99.90;;;;;;5086974;28;19977;-77
2023/05/21 10:53:37;;;;;;;;;;;20.20;99.90;;;;;;5086565;28;19932;-78
2023/05/21 10:56:13;;;;;;;;;;;20.40;99.90;;;;;;5088747;28;19928;-78
2023/05/21 10:58:47;;;;;;;;;;;20.60;99.90;;;;;;5086041;28;20365;-78
2023/05/21 11:01:13;;;;;;;;;;;20.60;99.90;;;;;;5090544;28;20298;-78
2023/05/21 11:03:39;;;;;;;;;;;20.60;99.90;;;;;;5089816;28;20018;-78
2023/05/21 11:06:05;;;;;;;;;;;20.60;99.90;;;;;;5089661;28;20366;-78
2023/05/21 11:08:34;;;;;;;;;;;20.70;99.90;;;;;;5088584;28;19924;-78
2023/05/21 11:11:00;;;;;;;;;;;20.70;99.90;;;;;;5088259;28;19977;-78
2023/05/21 11:13:27;;;;;;;;;;;20.70;99.90;;;;;;5088848;28;19924;-78
2023/05/21 11:15:58;;;;;;;;;;;20.90;99.90;;;;;;5089791;28;20411;-78
2023/05/21 11:18:36;;;;;;;;;;;21.00;99.90;;;;;;5090417;28;19927;-78
2023/05/21 11:21:02;;;;;;;;;;;21.00;99.90;;;;;;5088297;28;19976;-78
2023/05/21 11:23:46;;;;;;;;;;;21.20;99.90;;;;;;5089475;28;19936;-78
2023/05/21 11:26:14;;;;;;;;;;;21.30;99.90;;;;;;5083121;28;19924;-78
2023/05/21 11:28:40;;;;;;;;;;;21.30;99.90;;;;;;5089917;28;19924;-78
2023/05/21 11:31:28;;;;;;;;;;;21.20;99.90;;;;;;5090086;28;20439;-75
2023/05/21 11:34:31;;;;;;;;;;;21.00;99.90;;;;;;5088027;28;19928;-75
2023/05/21 11:37:15;;;;;;;;;;;21.10;99.90;;;;;;5043143;28;19986;-75
2023/05/21 11:39:41;;;;;;;;;;;21.10;99.90;;;;;;5089752;28;19924;-75
2023/05/21 11:42:06;;;;;;;;;;;21.10;99.90;;;;;;5088222;28;20595;-75
2023/05/21 11:44:41;;;;;;;;;;;21.20;99.90;;;;;;5088165;28;19947;-75
2023/05/21 11:47:07;;;;;;;;;;;21.30;99.90;;;;;;5088958;28;19937;-75
2023/05/21 11:49:33;;;;;;;;;;;21.50;99.90;;;;;;5087860;28;19931;-76
2023/05/21 11:51:59;;;;;;;;;;;21.70;99.90;;;;;;5087873;28;19928;-75
2023/05/21 11:54:25;;;;;;;;;;;21.80;99.90;;;;;;5070589;28;19927;-76
2023/05/21 11:56:51;;;;;;;;;;;22.10;99.90;;;;;;5089164;28;20009;-75
2023/05/21 11:59:17;;;;;;;;;;;22.30;99.90;;;;;;5087821;28;20378;-76
2023/05/21 12:01:43;;;;;;;;;;;22.50;99.90;;;;;;5087687;28;20011;-76
2023/05/21 12:04:10;;;;;;;;;;;22.60;99.90;;;;;;5089322;28;19931;-76
2023/05/21 12:06:41;;;;;;;;;;;22.70;99.90;;;;;;5088801;28;19924;-76
2023/05/21 12:09:10;;;;;;;;;;;22.70;99.90;;;;;;5088974;28;20427;-76
2023/05/21 12:11:39;;;;;;;;;;;22.60;99.90;;;;;;5087492;28;19964;-76
2023/05/21 12:14:11;;;;;;;;;;;22.70;99.90;;;;;;5088649;28;19935;-76
2023/05/21 12:16:37;;;;;;;;;;;22.50;99.90;;;;;;5087368;28;19924;-76
2023/05/21 12:19:04;;;;;;;;;;;22.30;99.90;;;;;;5088393;28;19928;-76
2023/05/21 12:21:30;;;;;;;;;;;22.20;99.90;;;;;;5087367;28;19924;-76
2023/05/21 12:23:56;;;;;;;;;;;22.20;99.90;;;;;;5087285;28;20378;-76
2023/05/21 12:26:24;;;;;;;;;;;22.30;99.90;;;;;;5089203;28;19924;-76
2023/05/21 12:28:53;;;;;;;;;;;22.50;99.90;;;;;;5087247;28;19924;-76
2023/05/21 12:31:20;;;;;;;;;;;22.70;99.90;;;;;;5088672;28;19924;-76
2023/05/21 12:33:49;;;;;;;;;;;22.90;99.90;;;;;;5088918;28;20378;-76
2023/05/21 12:36:22;;;;;;;;;;;23.10;99.90;;;;;;5088980;28;19924;-76
2023/05/21 12:38:48;;;;;;;;;;;23.20;99.90;;;;;;5090015;28;19935;-75
2023/05/21 12:41:15;;;;;;;12.05;5.38;;;23.30;99.90;;;;;;5088976;28;19924;-73
2023/05/21 12:43:41;;;;;;;10.15;5.45;;;23.40;99.90;;;;;;5085292;28;20401;-74
2023/05/21 12:46:10;;;;;;;12.23;6.38;;;23.60;99.90;;;;;;5093128;28;20474;-74
2023/05/21 12:48:37;;;;;;;12.02;6.72;;;23.70;99.90;;;;;;5091049;28;20412;-75
2023/05/21 12:51:03;;;;;;;11.77;6.13;;;23.70;99.90;;;;;;5090408;28;20439;-75
2023/05/21 12:53:41;;;;;;;11.57;6.82;;;23.70;99.90;;;;;;5082277;28;20410;-75
2023/05/21 12:56:11;;;;;;;10.32;7.07;;;23.90;99.90;;;;;;5088253;28;20417;-75
2023/05/21 12:58:37;;;;;;;10.77;6.00;;;23.90;99.90;;;;;;5085476;28;20429;-75
2023/05/21 13:01:07;;;;;;;11.88;6.78;;;24.10;99.90;;;;;;5096682;28;20404;-75
2023/05/21 13:03:37;;;;;;;10.73;6.80;;;24.30;99.90;;;;;;5089816;28;20503;-75
2023/05/21 13:06:06;;;;;;;11.15;6.70;;;24.40;99.90;;;;;;5075848;28;20440;-75
2023/05/21 13:08:35;;;;;;;14.53;6.67;;;24.40;99.90;;;;;;5093080;28;20551;-75
2023/05/21 13:11:01;;;;;;;12.68;6.75;;;24.60;99.90;;;;;;5092845;28;20409;-75
2023/05/21 13:13:27;;;;;;;13.63;5.70;;;24.90;99.90;;;;;;5090433;28;20424;-75
2023/05/21 13:15:53;;;;;;;13.33;6.67;;;25.10;99.90;;;;;;5089674;28;20406;-75
2023/05/21 13:18:22;;;;;;;12.38;6.80;;;25.30;99.90;;;;;;5096644;28;20487;-75
2023/05/21 13:20:48;;;;;;;12.47;7.40;;;25.30;99.90;;;;;;5090306;28;20402;-75
2023/05/21 13:23:17;;;;;;;11.38;6.50;;;25.20;99.90;;;;;;5091793;28;20459;-75
2023/05/21 13:25:43;;;;;;;12.07;6.53;;;25.10;99.90;;;;;;5090584;27;20429;-75
2023/05/21 13:28:13;;;;;;;10.73;6.37;;;25.20;99.90;;;;;;5086355;28;20414;-75
2023/05/21 13:30:39;;;;;;;12.77;6.67;;;25.30;99.90;;;;;;5085276;28;21017;-75
2023/05/21 13:33:05;;;;;;;12.13;6.85;;;25.50;99.90;;;;;;5092151;28;20418;-76
2023/05/21 13:35:31;;;;;;;10.27;6.50;;;25.70;99.90;;;;;;5088617;28;20402;-76
2023/05/21 13:37:56;;;;;;;11.70;8.60;;;25.90;99.90;;;;;;5071533;28;20445;-76
2023/05/21 13:40:22;;;;;;;13.85;8.98;;;26.00;99.90;;;;;;5092495;28;20780;-76
2023/05/21 13:42:48;;;;;;;12.40;8.77;;;26.10;99.90;;;;;;5093796;28;20436;-76
2023/05/21 13:45:16;;;;;;;12.10;9.00;;;26.20;99.90;;;;;;5081873;28;20398;-76
2023/05/21 13:47:43;;;;;;;11.63;8.32;;;26.40;99.90;;;;;;5089362;28;20480;-76
2023/05/21 13:50:09;;;;;;;13.95;9.73;;;26.70;99.90;;;;;;5091385;28;20410;-77
2023/05/21 13:52:35;;;;;;;13.20;8.80;;;26.90;99.90;;;;;;5086831;28;20425;-76
2023/05/21 13:55:01;;;;;;;13.95;9.98;;;27.00;99.90;;;;;;5093501;28;20448;-76
2023/05/21 13:57:29;;;;;;;12.23;10.50;;;27.10;99.90;;;;;;5087330;28;20776;-76
2023/05/21 13:59:55;;;;;;;14.23;11.03;;;27.20;99.90;;;;;;5084031;28;20489;-79
2023/05/21 14:02:21;;;;;;;13.43;10.82;;;27.20;99.50;;;;;;5083056;28;20551;-76
2023/05/21 14:04:47;;;;;;;13.10;10.57;;;27.20;99.50;;;;;;5084507;28;20402;-77